Airfield :
LOGIN :

Register | Disclaimer

   EN    FR    IT 

 










Legend :    VFR   Marginal VFR   IFR   Intensive IFR   Very Intensive IFR
Visi :
Ceiling :
>= 8 km
>= 3000ft
5 to 8 km
1000 to 3000 ft
1500m to 5 km
500 to 1000 ft
800 to 1500m
200 to 500 ft
< 800m
< 200 ft
Symbols :   Thunderstorms  Fog  Heavy snow  Heavy precipitations  Wind > 20 kt
SIGMETs :     Misc.  Thunderstorms  Icing  Turbulence  Mountain Waves  Volcanic Ashes







- Airport Elevation : 325 ft
- IATA code : BES
- Download approach charts


LFRB - Brest

CURRENT METAR :
  • 181200Z AUTO /////KT 9999 BKN030 11/10 Q1027

EXPIRED METARs :
  • 181130Z AUTO /////KT 9999 OVC031 10/09 Q1028
  • 181100Z AUTO /////KT 9999 OVC031 10/09 Q1028
  • 181030Z AUTO /////KT 9999 BKN032 09/09 Q1028
  • 181000Z AUTO /////KT 9000 NSC 09/09 Q1028
  • 180930Z AUTO /////KT 4600 BR VV/// 08/08 Q1028

TAF TAF LFRB
Valid from the 18 at 12:00 until the 19 at 18:00 UTC


181100Z 1812/1918 23004KT 9999 BKN030
BECMG 1816/1818 BKN014
TEMPO 1820/1906 3000 BR BKN006
ATIS : +33 2 98 32 02 71
No reported NOTAMs for that airfield.



MET'MAP, your aeronautical weather chart ! - Copyright ORBIFLY December 2007 - Disclaimer

ORBIFLY MET'MAP TEAM :

Programming & Development : Alexandra Zaïnal
Concept & Development : Baudouin d'Aumeries
Co-Development & Prog : Marc-Olivier Méhu
Technical & hardware support : Manuel Goepfert

Contact : metmap@orbifly.com




SOURCES & CREDITS :

   NOAA